sensor_id;sensor_type;location;lat;lon;timestamp;pressure;altitude;pressure_sealevel;temperature;humidity
33422;BME280;19763;55.798;37.782;2022-11-23T00:01:35;98547.75;;;1.13;99.23
33422;BME280;19763;55.798;37.782;2022-11-23T00:04:07;98531.59;;;1.06;99.07
33422;BME280;19763;55.798;37.782;2022-11-23T00:06:33;98543.50;;;1.07;99.35
33422;BME280;19763;55.798;37.782;2022-11-23T00:08:59;98532.47;;;1.00;99.79
33422;BME280;19763;55.798;37.782;2022-11-23T00:11:26;98520.56;;;0.95;99.60
33422;BME280;19763;55.798;37.782;2022-11-23T00:13:52;98540.94;;;1.09;99.57
33422;BME280;19763;55.798;37.782;2022-11-23T00:16:23;98523.13;;;0.89;99.74
33422;BME280;19763;55.798;37.782;2022-11-23T00:18:54;98547.72;;;1.08;99.68
33422;BME280;19763;55.798;37.782;2022-11-23T00:21:21;98534.16;;;0.92;99.71
33422;BME280;19763;55.798;37.782;2022-11-23T00:23:47;98558.78;;;1.12;99.65
33422;BME280;19763;55.798;37.782;2022-11-23T00:26:13;98562.19;;;1.06;99.17
33422;BME280;19763;55.798;37.782;2022-11-23T00:28:40;98554.53;;;1.12;99.49
33422;BME280;19763;55.798;37.782;2022-11-23T00:31:07;98551.97;;;1.20;99.21
33422;BME280;19763;55.798;37.782;2022-11-23T00:33:34;98549.44;;;1.17;99.21
33422;BME280;19763;55.798;37.782;2022-11-23T00:36:04;98556.22;;;1.13;98.93
33422;BME280;19763;55.798;37.782;2022-11-23T00:38:30;98544.31;;;1.15;99.19
33422;BME280;19763;55.798;37.782;2022-11-23T00:40:57;98538.41;;;1.09;99.11
33422;BME280;19763;55.798;37.782;2022-11-23T00:43:23;98541.81;;;1.00;99.29
33422;BME280;19763;55.798;37.782;2022-11-23T00:45:49;98546.03;;;1.12;99.18
33422;BME280;19763;55.798;37.782;2022-11-23T00:48:15;98554.56;;;1.03;99.50
33422;BME280;19763;55.798;37.782;2022-11-23T00:50:41;98555.38;;;1.05;98.97
33422;BME280;19763;55.798;37.782;2022-11-23T00:53:06;98555.41;;;0.88;99.55
33422;BME280;19763;55.798;37.782;2022-11-23T00:55:32;98551.13;;;1.04;99.70
33422;BME280;19763;55.798;37.782;2022-11-23T00:57:57;98550.28;;;1.08;99.39
33422;BME280;19763;55.798;37.782;2022-11-23T01:00:23;98550.28;;;1.05;99.37
33422;BME280;19763;55.798;37.782;2022-11-23T01:02:48;98549.44;;;0.95;99.16
33422;BME280;19763;55.798;37.782;2022-11-23T01:05:14;98551.16;;;1.07;99.35
33422;BME280;19763;55.798;37.782;2022-11-23T01:07:40;98538.38;;;1.02;99.47
33422;BME280;19763;55.798;37.782;2022-11-23T01:10:05;98529.84;;;1.24;99.18
33422;BME280;19763;55.798;37.782;2022-11-23T01:12:32;98539.19;;;1.29;98.81
33422;BME280;19763;55.798;37.782;2022-11-23T01:14:58;98534.94;;;1.34;98.52
33422;BME280;19763;55.798;37.782;2022-11-23T01:17:23;98542.59;;;1.33;98.15
33422;BME280;19763;55.798;37.782;2022-11-23T01:19:49;98530.72;;;1.24;98.40
33422;BME280;19763;55.798;37.782;2022-11-23T01:22:15;98546.00;;;1.19;98.21
33422;BME280;19763;55.798;37.782;2022-11-23T01:24:41;98538.38;;;1.12;98.47
33422;BME280;19763;55.798;37.782;2022-11-23T01:27:06;98533.25;;;1.19;98.38
33422;BME280;19763;55.798;37.782;2022-11-23T01:29:32;98534.94;;;1.28;98.57
33422;BME280;19763;55.798;37.782;2022-11-23T01:31:58;98543.44;;;1.21;98.27
33422;BME280;19763;55.798;37.782;2022-11-23T01:34:23;98535.81;;;1.24;98.27
33422;BME280;19763;55.798;37.782;2022-11-23T01:36:49;98541.78;;;1.18;98.35
33422;BME280;19763;55.798;37.782;2022-11-23T01:39:14;98533.31;;;1.06;98.53
33422;BME280;19763;55.798;37.782;2022-11-23T01:41:42;98543.50;;;1.06;98.71
33422;BME280;19763;55.798;37.782;2022-11-23T01:44:30;98540.09;;;1.02;99.14
33422;BME280;19763;55.798;37.782;2022-11-23T01:47:01;98531.56;;;1.12;98.95
33422;BME280;19763;55.798;37.782;2022-11-23T01:49:31;98527.34;;;1.16;98.90
33422;BME280;19763;55.798;37.782;2022-11-23T01:52:03;98527.34;;;1.03;99.05
33422;BME280;19763;55.798;37.782;2022-11-23T01:54:35;98518.03;;;0.82;99.16
33422;BME280;19763;55.798;37.782;2022-11-23T01:57:04;98536.72;;;1.03;99.50
33422;BME280;19763;55.798;37.782;2022-11-23T01:59:32;98519.75;;;0.93;98.94
33422;BME280;19763;55.798;37.782;2022-11-23T02:01:59;98533.28;;;1.10;99.29
33422;BME280;19763;55.798;37.782;2022-11-23T02:04:30;98544.31;;;1.14;99.46
33422;BME280;19763;55.798;37.782;2022-11-23T02:06:56;98546.00;;;1.19;99.22
33422;BME280;19763;55.798;37.782;2022-11-23T02:09:24;98535.00;;;1.03;99.29
33422;BME280;19763;55.798;37.782;2022-11-23T02:11:50;98541.75;;;1.15;99.33
33422;BME280;19763;55.798;37.782;2022-11-23T02:14:16;98539.25;;;1.05;99.19
33422;BME280;19763;55.798;37.782;2022-11-23T02:16:42;98546.88;;;1.22;99.21
33422;BME280;19763;55.798;37.782;2022-11-23T02:19:18;98542.63;;;1.20;98.64
33422;BME280;19763;55.798;37.782;2022-11-23T02:21:48;98550.25;;;1.20;98.82
33422;BME280;19763;55.798;37.782;2022-11-23T02:24:27;98551.13;;;1.13;99.25
33422;BME280;19763;55.798;37.782;2022-11-23T02:26:55;98548.59;;;1.07;99.38
33422;BME280;19763;55.798;37.782;2022-11-23T02:29:23;98527.38;;;0.97;99.65
33422;BME280;19763;55.798;37.782;2022-11-23T02:31:50;98536.66;;;1.25;99.57
33422;BME280;19763;55.798;37.782;2022-11-23T02:34:16;98541.72;;;1.32;98.93
33422;BME280;19763;55.798;37.782;2022-11-23T02:36:50;98528.19;;;1.10;98.96
33422;BME280;19763;55.798;37.782;2022-11-23T02:39:36;98549.44;;;1.18;99.03
33422;BME280;19763;55.798;37.782;2022-11-23T02:42:04;98541.75;;;1.15;99.31
33422;BME280;19763;55.798;37.782;2022-11-23T02:47:14;98539.19;;;1.31;99.50
33422;BME280;19763;55.798;37.782;2022-11-23T02:49:40;98544.34;;;1.08;99.30
33422;BME280;19763;55.798;37.782;2022-11-23T02:52:07;98543.47;;;1.16;99.37
33422;BME280;19763;55.798;37.782;2022-11-23T02:54:33;98544.25;;;1.34;99.34
33422;BME280;19763;55.798;37.782;2022-11-23T02:56:59;98542.56;;;1.41;98.76
33422;BME280;19763;55.798;37.782;2022-11-23T02:59:25;98540.06;;;1.10;98.84
33422;BME280;19763;55.798;37.782;2022-11-23T03:01:51;98539.22;;;1.18;99.09
33422;BME280;19763;55.798;37.782;2022-11-23T03:04:17;98546.91;;;1.06;99.15
33422;BME280;19763;55.798;37.782;2022-11-23T03:06:42;98555.34;;;1.25;99.03
33422;BME280;19763;55.798;37.782;2022-11-23T03:09:08;98551.97;;;1.23;98.84
33422;BME280;19763;55.798;37.782;2022-11-23T03:11:34;98551.91;;;1.34;98.69
33422;BME280;19763;55.798;37.782;2022-11-23T03:13:59;98536.63;;;1.31;98.48
33422;BME280;19763;55.798;37.782;2022-11-23T03:16:25;98541.66;;;1.49;98.22
33422;BME280;19763;55.798;37.782;2022-11-23T03:18:51;98540.00;;;1.42;98.22
33422;BME280;19763;55.798;37.782;2022-11-23T03:21:17;98548.50;;;1.47;98.05
33422;BME280;19763;55.798;37.782;2022-11-23T03:23:43;98546.75;;;1.52;97.72
33422;BME280;19763;55.798;37.782;2022-11-23T03:26:08;98548.47;;;1.50;97.72
33422;BME280;19763;55.798;37.782;2022-11-23T03:28:34;98548.47;;;1.50;97.34
33422;BME280;19763;55.798;37.782;2022-11-23T03:31:00;98539.16;;;1.45;97.50
33422;BME280;19763;55.798;37.782;2022-11-23T03:33:25;98551.88;;;1.55;97.47
33422;BME280;19763;55.798;37.782;2022-11-23T03:35:51;98553.56;;;1.61;97.26
33422;BME280;19763;55.798;37.782;2022-11-23T03:38:17;98553.56;;;1.60;97.06
33422;BME280;19763;55.798;37.782;2022-11-23T03:40:46;98563.75;;;1.63;96.98
33422;BME280;19763;55.798;37.782;2022-11-23T03:43:13;98560.31;;;1.64;96.95
33422;BME280;19763;55.798;37.782;2022-11-23T03:45:38;98567.16;;;1.62;96.73
33422;BME280;19763;55.798;37.782;2022-11-23T03:48:05;98558.59;;;1.72;96.70
33422;BME280;19763;55.798;37.782;2022-11-23T03:50:30;98557.75;;;1.71;96.41
33422;BME280;19763;55.798;37.782;2022-11-23T03:52:56;98562.03;;;1.65;96.28
33422;BME280;19763;55.798;37.782;2022-11-23T03:55:22;98561.19;;;1.63;96.10
33422;BME280;19763;55.798;37.782;2022-11-23T03:57:48;98555.28;;;1.54;96.45
33422;BME280;19763;55.798;37.782;2022-11-23T04:00:14;98560.34;;;1.67;96.45
33422;BME280;19763;55.798;37.782;2022-11-23T04:02:41;98549.34;;;1.54;96.57
33422;BME280;19763;55.798;37.782;2022-11-23T04:05:07;98547.56;;;1.62;96.85
33422;BME280;19763;55.798;37.782;2022-11-23T04:07:33;98557.78;;;1.61;96.60
33422;BME280;19763;55.798;37.782;2022-11-23T04:09:58;98555.22;;;1.68;96.48
33422;BME280;19763;55.798;37.782;2022-11-23T04:12:24;98553.53;;;1.64;96.59
33422;BME280;19763;55.798;37.782;2022-11-23T04:14:50;98554.41;;;1.57;97.15
33422;BME280;19763;55.798;37.782;2022-11-23T04:17:16;98542.53;;;1.53;96.88
33422;BME280;19763;55.798;37.782;2022-11-23T04:19:42;98546.75;;;1.51;96.80
33422;BME280;19763;55.798;37.782;2022-11-23T04:22:08;98552.69;;;1.68;96.77
33422;BME280;19763;55.798;37.782;2022-11-23T04:24:33;98558.66;;;1.64;96.69
33422;BME280;19763;55.798;37.782;2022-11-23T04:26:59;98559.47;;;1.68;96.63
33422;BME280;19763;55.798;37.782;2022-11-23T04:29:25;98556.97;;;1.51;96.31
33422;BME280;19763;55.798;37.782;2022-11-23T04:31:50;98561.25;;;1.46;96.82
33422;BME280;19763;55.798;37.782;2022-11-23T04:34:16;98561.22;;;1.53;96.82
33422;BME280;19763;55.798;37.782;2022-11-23T04:36:42;98556.97;;;1.51;96.88
33422;BME280;19763;55.798;37.782;2022-11-23T04:39:08;98562.94;;;1.53;96.93
33422;BME280;19763;55.798;37.782;2022-11-23T04:41:34;98568.88;;;1.50;96.85
33422;BME280;19763;55.798;37.782;2022-11-23T04:44:00;98567.19;;;1.49;96.65
33422;BME280;19763;55.798;37.782;2022-11-23T04:46:25;98580.78;;;1.47;96.96
33422;BME280;19763;55.798;37.782;2022-11-23T04:48:51;98573.16;;;1.48;97.20
33422;BME280;19763;55.798;37.782;2022-11-23T04:51:16;98571.44;;;1.52;96.89
33422;BME280;19763;55.798;37.782;2022-11-23T04:53:42;98563.81;;;1.44;97.16
33422;BME280;19763;55.798;37.782;2022-11-23T04:56:07;98574.88;;;1.43;97.08
33422;BME280;19763;55.798;37.782;2022-11-23T04:58:33;98575.69;;;1.45;97.13
33422;BME280;19763;55.798;37.782;2022-11-23T05:01:01;98572.28;;;1.48;97.25
33422;BME280;19763;55.798;37.782;2022-11-23T05:03:26;98566.34;;;1.50;97.50
33422;BME280;19763;55.798;37.782;2022-11-23T05:05:52;98563.78;;;1.53;96.83
33422;BME280;19763;55.798;37.782;2022-11-23T05:08:18;98562.06;;;1.59;97.32
33422;BME280;19763;55.798;37.782;2022-11-23T05:10:43;98568.03;;;1.45;97.12
33422;BME280;19763;55.798;37.782;2022-11-23T05:13:09;98567.19;;;1.55;97.02
33422;BME280;19763;55.798;37.782;2022-11-23T05:15:35;98565.50;;;1.45;97.63
33422;BME280;19763;55.798;37.782;2022-11-23T05:18:02;98567.19;;;1.57;97.23
33422;BME280;19763;55.798;37.782;2022-11-23T05:20:28;98571.38;;;1.67;96.93
33422;BME280;19763;55.798;37.782;2022-11-23T05:22:54;98573.09;;;1.61;96.54
33422;BME280;19763;55.798;37.782;2022-11-23T05:25:20;98558.66;;;1.53;96.84
33422;BME280;19763;55.798;37.782;2022-11-23T05:27:46;98575.63;;;1.64;96.47
33422;BME280;19763;55.798;37.782;2022-11-23T05:30:12;98576.53;;;1.60;96.58
33422;BME280;19763;55.798;37.782;2022-11-23T05:32:38;98577.38;;;1.51;96.14
33422;BME280;19763;55.798;37.782;2022-11-23T05:35:03;98579.94;;;1.55;96.34
33422;BME280;19763;55.798;37.782;2022-11-23T05:37:30;98587.63;;;1.31;96.95
33422;BME280;19763;55.798;37.782;2022-11-23T05:39:56;98593.56;;;1.50;97.35
33422;BME280;19763;55.798;37.782;2022-11-23T05:42:21;98592.66;;;1.62;97.02
33422;BME280;19763;55.798;37.782;2022-11-23T05:44:47;98604.56;;;1.57;96.63
33422;BME280;19763;55.798;37.782;2022-11-23T05:47:13;98600.34;;;1.59;96.64
33422;BME280;19763;55.798;37.782;2022-11-23T05:49:38;98602.06;;;1.49;97.35
33422;BME280;19763;55.798;37.782;2022-11-23T05:52:04;98607.97;;;1.65;97.03
33422;BME280;19763;55.798;37.782;2022-11-23T05:54:30;98609.69;;;1.61;97.05
33422;BME280;19763;55.798;37.782;2022-11-23T05:56:56;98597.75;;;1.68;97.16
33422;BME280;19763;55.798;37.782;2022-11-23T05:59:21;98604.63;;;1.47;96.84
33422;BME280;19763;55.798;37.782;2022-11-23T06:01:47;98596.97;;;1.36;97.82
33422;BME280;19763;55.798;37.782;2022-11-23T06:04:13;98608.00;;;1.49;97.13
33422;BME280;19763;55.798;37.782;2022-11-23T06:06:38;98598.66;;;1.42;97.43
33422;BME280;19763;55.798;37.782;2022-11-23T06:09:04;98592.75;;;1.28;97.81
33422;BME280;19763;55.798;37.782;2022-11-23T06:11:29;98588.50;;;1.19;98.24
33422;BME280;19763;55.798;37.782;2022-11-23T06:13:57;98599.56;;;1.29;98.31
33422;BME280;19763;55.798;37.782;2022-11-23T06:16:22;98598.69;;;1.33;98.47
33422;BME280;19763;55.798;37.782;2022-11-23T06:18:48;98590.22;;;1.23;98.27
33422;BME280;19763;55.798;37.782;2022-11-23T06:21:14;98601.25;;;1.31;98.26
33422;BME280;19763;55.798;37.782;2022-11-23T06:23:40;98602.94;;;1.28;98.45
33422;BME280;19763;55.798;37.782;2022-11-23T06:26:05;98582.53;;;1.28;98.16
33422;BME280;19763;55.798;37.782;2022-11-23T06:28:31;98594.41;;;1.50;98.13
33422;BME280;19763;55.798;37.782;2022-11-23T06:31:01;98590.19;;;1.32;97.88
33422;BME280;19763;55.798;37.782;2022-11-23T06:33:27;98594.44;;;1.44;98.33
33422;BME280;19763;55.798;37.782;2022-11-23T06:35:54;98596.97;;;1.49;97.83
33422;BME280;19763;55.798;37.782;2022-11-23T06:38:20;98597.81;;;1.46;97.68
33422;BME280;19763;55.798;37.782;2022-11-23T06:40:45;98593.56;;;1.51;97.69
33422;BME280;19763;55.798;37.782;2022-11-23T06:43:11;98599.47;;;1.57;97.09
33422;BME280;19763;55.798;37.782;2022-11-23T06:45:37;98595.22;;;1.62;97.54
33422;BME280;19763;55.798;37.782;2022-11-23T06:48:02;98593.50;;;1.61;96.99
33422;BME280;19763;55.798;37.782;2022-11-23T06:50:28;98591.00;;;1.50;97.16
33422;BME280;19763;55.798;37.782;2022-11-23T06:52:55;98600.34;;;1.51;97.38
33422;BME280;19763;55.798;37.782;2022-11-23T06:55:22;98606.31;;;1.47;97.16
33422;BME280;19763;55.798;37.782;2022-11-23T06:57:48;98598.69;;;1.37;97.62
33422;BME280;19763;55.798;37.782;2022-11-23T07:00:14;98602.06;;;1.40;97.67
33422;BME280;19763;55.798;37.782;2022-11-23T07:02:39;98602.94;;;1.34;97.40
33422;BME280;19763;55.798;37.782;2022-11-23T07:05:05;98601.22;;;1.42;97.79
33422;BME280;19763;55.798;37.782;2022-11-23T07:07:31;98602.03;;;1.64;97.41
33422;BME280;19763;55.798;37.782;2022-11-23T08:14:03;98626.75;;;1.10;100.00
33422;BME280;19763;55.798;37.782;2022-11-23T08:16:29;98618.28;;;1.17;99.99
33422;BME280;19763;55.798;37.782;2022-11-23T08:18:55;98619.94;;;1.36;99.60
33422;BME280;19763;55.798;37.782;2022-11-23T08:21:21;98613.13;;;1.34;98.81
33422;BME280;19763;55.798;37.782;2022-11-23T08:23:47;98611.41;;;1.45;98.76
33422;BME280;19763;55.798;37.782;2022-11-23T08:26:13;98620.72;;;1.65;98.16
33422;BME280;19763;55.798;37.782;2022-11-23T08:28:38;98613.94;;;1.47;97.56
33422;BME280;19763;55.798;37.782;2022-11-23T08:31:08;98615.59;;;1.68;97.23
33422;BME280;19763;55.798;37.782;2022-11-23T08:33:36;98612.19;;;1.75;96.96
33422;BME280;19763;55.798;37.782;2022-11-23T08:36:03;98613.81;;;1.95;96.39
33422;BME280;19763;55.798;37.782;2022-11-23T08:38:30;98624.81;;;2.09;96.44
33422;BME280;19763;55.798;37.782;2022-11-23T08:41:00;98607.91;;;1.80;95.62
33422;BME280;19763;55.798;37.782;2022-11-23T08:43:26;98626.53;;;2.10;95.79
33422;BME280;19763;55.798;37.782;2022-11-23T08:45:58;98624.06;;;1.84;95.38
33422;BME280;19763;55.798;37.782;2022-11-23T08:48:24;98638.56;;;1.77;95.47
33422;BME280;19763;55.798;37.782;2022-11-23T08:50:50;98623.28;;;1.72;94.96
33422;BME280;19763;55.798;37.782;2022-11-23T08:53:16;98634.25;;;1.90;95.36
33422;BME280;19763;55.798;37.782;2022-11-23T08:55:42;98640.22;;;1.87;95.54
33422;BME280;19763;55.798;37.782;2022-11-23T08:58:08;98632.59;;;1.84;95.68
33422;BME280;19763;55.798;37.782;2022-11-23T09:00:34;98646.19;;;1.86;95.47
33422;BME280;19763;55.798;37.782;2022-11-23T09:03:00;98646.19;;;1.80;94.90
33422;BME280;19763;55.798;37.782;2022-11-23T09:05:27;98640.28;;;1.58;95.71
33422;BME280;19763;55.798;37.782;2022-11-23T09:07:54;98637.69;;;1.83;96.31
33422;BME280;19763;55.798;37.782;2022-11-23T09:10:20;98594.38;;;1.61;95.87
33422;BME280;19763;55.798;37.782;2022-11-23T09:12:46;98634.38;;;1.53;95.78
33422;BME280;19763;55.798;37.782;2022-11-23T09:15:12;98646.22;;;1.79;95.85
33422;BME280;19763;55.798;37.782;2022-11-23T09:17:38;98635.97;;;1.93;95.63
33422;BME280;19763;55.798;37.782;2022-11-23T09:20:04;98637.66;;;1.97;95.15
33422;BME280;19763;55.798;37.782;2022-11-23T09:22:30;98627.50;;;1.70;94.73
33422;BME280;19763;55.798;37.782;2022-11-23T09:24:56;98635.91;;;2.00;95.17
33422;BME280;19763;55.798;37.782;2022-11-23T09:27:22;98637.66;;;1.90;94.68
33422;BME280;19763;55.798;37.782;2022-11-23T09:29:47;98635.94;;;1.99;94.12
33422;BME280;19763;55.798;37.782;2022-11-23T09:32:13;98639.34;;;2.02;94.35
33422;BME280;19763;55.798;37.782;2022-11-23T09:34:38;98623.94;;;2.13;93.86
33422;BME280;19763;55.798;37.782;2022-11-23T09:37:04;98634.97;;;2.23;93.99
33422;BME280;19763;55.798;37.782;2022-11-23T09:39:30;98632.41;;;2.24;93.74
33422;BME280;19763;55.798;37.782;2022-11-23T09:50:09;98636.66;;;2.29;93.29
33422;BME280;19763;55.798;37.782;2022-11-23T09:52:41;98617.16;;;2.11;93.12
33422;BME280;19763;55.798;37.782;2022-11-23T09:55:15;98627.34;;;2.14;93.06
33422;BME280;19763;55.798;37.782;2022-11-23T09:57:42;98623.91;;;2.18;92.60
33422;BME280;19763;55.798;37.782;2022-11-23T10:02:42;98634.19;;;2.09;92.43
33422;BME280;19763;55.798;37.782;2022-11-23T10:05:16;98629.91;;;2.14;92.90
33422;BME280;19763;55.798;37.782;2022-11-23T10:10:44;98620.63;;;1.88;93.29
33422;BME280;19763;55.798;37.782;2022-11-23T10:13:32;98627.44;;;1.92;93.84
33422;BME280;19763;55.798;37.782;2022-11-23T10:19:32;98641.00;;;2.11;94.00
33422;BME280;19763;55.798;37.782;2022-11-23T10:24:45;98620.59;;;2.00;92.93
33422;BME280;19763;55.798;37.782;2022-11-23T10:27:17;98627.28;;;2.26;93.16
33422;BME280;19763;55.798;37.782;2022-11-23T10:29:43;98631.63;;;2.10;93.08
33422;BME280;19763;55.798;37.782;2022-11-23T10:35:12;98639.25;;;2.22;92.90
33422;BME280;19763;55.798;37.782;2022-11-23T10:37:39;98640.97;;;2.17;93.03
33422;BME280;19763;55.798;37.782;2022-11-23T10:40:20;98622.31;;;2.00;92.48
33422;BME280;19763;55.798;37.782;2022-11-23T10:42:48;98640.16;;;2.03;92.68
33422;BME280;19763;55.798;37.782;2022-11-23T10:45:21;98636.69;;;2.19;93.44
33422;BME280;19763;55.798;37.782;2022-11-23T10:47:50;98623.97;;;2.12;93.09
33422;BME280;19763;55.798;37.782;2022-11-23T10:50:24;98642.63;;;2.24;93.08
33422;BME280;19763;55.798;37.782;2022-11-23T10:52:55;98635.84;;;2.20;93.11
33422;BME280;19763;55.798;37.782;2022-11-23T10:55:23;98645.13;;;2.35;92.76
33422;BME280;19763;55.798;37.782;2022-11-23T10:57:49;98643.41;;;2.37;92.72
33422;BME280;19763;55.798;37.782;2022-11-23T11:00:17;98648.56;;;2.30;92.21
33422;BME280;19763;55.798;37.782;2022-11-23T11:02:52;98646.88;;;2.29;92.78
33422;BME280;19763;55.798;37.782;2022-11-23T11:05:37;98650.25;;;2.37;92.98
33422;BME280;19763;55.798;37.782;2022-11-23T11:08:17;98624.81;;;2.09;92.51
33422;BME280;19763;55.798;37.782;2022-11-23T11:11:03;98648.59;;;2.23;91.92
33422;BME280;19763;55.798;37.782;2022-11-23T11:13:43;98634.16;;;2.15;92.54
33422;BME280;19763;55.798;37.782;2022-11-23T11:16:24;98651.19;;;2.13;92.26
33422;BME280;19763;55.798;37.782;2022-11-23T11:18:51;98651.31;;;1.80;92.63
33422;BME280;19763;55.798;37.782;2022-11-23T11:21:29;98660.66;;;1.87;92.97
33422;BME280;19763;55.798;37.782;2022-11-23T11:24:02;98660.63;;;1.94;93.27
33422;BME280;19763;55.798;37.782;2022-11-23T11:26:30;98654.69;;;1.81;92.93
33422;BME280;19763;55.798;37.782;2022-11-23T11:29:03;98669.13;;;1.96;93.45
33422;BME280;19763;55.798;37.782;2022-11-23T11:34:31;98684.41;;;2.08;93.29
33422;BME280;19763;55.798;37.782;2022-11-23T11:37:53;98683.53;;;2.11;92.95
33422;BME280;19763;55.798;37.782;2022-11-23T11:45:20;98682.75;;;1.93;93.30
33422;BME280;19763;55.798;37.782;2022-11-23T11:48:14;98675.09;;;1.93;93.67
33422;BME280;19763;55.798;37.782;2022-11-23T11:50:46;98692.94;;;2.01;93.67
33422;BME280;19763;55.798;37.782;2022-11-23T11:53:19;98692.97;;;1.95;93.30
33422;BME280;19763;55.798;37.782;2022-11-23T11:55:50;98699.78;;;1.89;93.65
33422;BME280;19763;55.798;37.782;2022-11-23T11:58:19;98705.72;;;2.02;93.11
33422;BME280;19763;55.798;37.782;2022-11-23T12:00:47;98703.16;;;1.99;92.85
33422;BME280;19763;55.798;37.782;2022-11-23T12:05:54;98710.00;;;1.83;92.78
33422;BME280;19763;55.798;37.782;2022-11-23T12:08:46;98715.09;;;1.83;93.25
33422;BME280;19763;55.798;37.782;2022-11-23T12:11:15;98714.22;;;1.94;93.67
33422;BME280;19763;55.798;37.782;2022-11-23T12:13:43;98696.41;;;1.84;93.39
33422;BME280;19763;55.798;37.782;2022-11-23T12:22:22;98732.09;;;1.94;93.20
33422;BME280;19763;55.798;37.782;2022-11-23T12:28:05;98734.72;;;1.78;92.65
33422;BME280;19763;55.798;37.782;2022-11-23T12:37:03;98749.97;;;1.90;92.55
33422;BME280;19763;55.798;37.782;2022-11-23T12:42:40;98750.00;;;1.72;92.94
33422;BME280;19763;55.798;37.782;2022-11-23T12:50:45;98755.94;;;1.86;93.11
33422;BME280;19763;55.798;37.782;2022-11-23T12:58:49;98751.72;;;1.64;93.44
33422;BME280;19763;55.798;37.782;2022-11-23T13:01:23;98760.22;;;1.83;93.63
33422;BME280;19763;55.798;37.782;2022-11-23T13:13:11;98784.88;;;1.92;93.20
33422;BME280;19763;55.798;37.782;2022-11-23T13:21:24;98791.69;;;1.69;92.28
33422;BME280;19763;55.798;37.782;2022-11-23T13:23:51;98782.34;;;1.70;92.54
33422;BME280;19763;55.798;37.782;2022-11-23T13:26:24;98793.41;;;1.84;92.59
33422;BME280;19763;55.798;37.782;2022-11-23T13:28:51;98791.69;;;1.69;92.67
33422;BME280;19763;55.798;37.782;2022-11-23T13:33:51;98784.88;;;1.42;93.22
33422;BME280;19763;55.798;37.782;2022-11-23T13:38:59;98806.16;;;1.58;93.20
33422;BME280;19763;55.798;37.782;2022-11-23T13:44:29;98802.75;;;1.61;93.18
33422;BME280;19763;55.798;37.782;2022-11-23T13:49:51;98812.09;;;1.48;93.46
33422;BME280;19763;55.798;37.782;2022-11-23T13:54:58;98807.00;;;1.49;93.04
33422;BME280;19763;55.798;37.782;2022-11-23T13:57:25;98807.84;;;1.37;92.81
33422;BME280;19763;55.798;37.782;2022-11-23T13:59:51;98781.47;;;1.18;93.23
33422;BME280;19763;55.798;37.782;2022-11-23T14:02:26;98822.28;;;1.28;92.99
33422;BME280;19763;55.798;37.782;2022-11-23T14:05:29;98823.97;;;1.35;93.38
33422;BME280;19763;55.798;37.782;2022-11-23T14:07:55;98823.16;;;1.39;92.94
33422;BME280;19763;55.798;37.782;2022-11-23T14:10:23;98827.38;;;1.34;92.84
33422;BME280;19763;55.798;37.782;2022-11-23T14:12:57;98838.44;;;1.41;92.94
33422;BME280;19763;55.798;37.782;2022-11-23T14:15:31;98818.00;;;1.24;93.32
33422;BME280;19763;55.798;37.782;2022-11-23T14:18:11;98832.47;;;1.25;93.83
33422;BME280;19763;55.798;37.782;2022-11-23T14:21:06;98843.56;;;1.41;93.81
33422;BME280;19763;55.798;37.782;2022-11-23T14:29:19;98848.69;;;1.50;93.50
33422;BME280;19763;55.798;37.782;2022-11-23T14:32:08;98854.63;;;1.50;93.61
33422;BME280;19763;55.798;37.782;2022-11-23T14:43:13;98862.31;;;1.61;93.08
33422;BME280;19763;55.798;37.782;2022-11-23T14:45:41;98868.22;;;1.49;92.73
33422;BME280;19763;55.798;37.782;2022-11-23T14:53:28;98863.97;;;1.37;93.13
33422;BME280;19763;55.798;37.782;2022-11-23T14:55:56;98875.84;;;1.34;92.77
33422;BME280;19763;55.798;37.782;2022-11-23T14:58:23;98874.13;;;1.27;93.28
33422;BME280;19763;55.798;37.782;2022-11-23T15:00:50;98880.09;;;1.35;93.23
33422;BME280;19763;55.798;37.782;2022-11-23T15:03:19;98860.41;;;0.94;92.84
33422;BME280;19763;55.798;37.782;2022-11-23T15:05:48;98891.88;;;0.99;92.80
33422;BME280;19763;55.798;37.782;2022-11-23T15:08:25;98885.97;;;1.08;93.32
33422;BME280;19763;55.798;37.782;2022-11-23T15:11:12;98872.34;;;0.99;93.51
33422;BME280;19763;55.798;37.782;2022-11-23T15:13:51;98859.56;;;0.92;92.89
33422;BME280;19763;55.798;37.782;2022-11-23T15:16:18;98890.28;;;1.26;93.71
33422;BME280;19763;55.798;37.782;2022-11-23T15:18:44;98881.78;;;1.25;92.72
33422;BME280;19763;55.798;37.782;2022-11-23T15:23:44;98891.94;;;1.14;91.81
33422;BME280;19763;55.798;37.782;2022-11-23T15:26:14;98899.63;;;1.24;92.41
33422;BME280;19763;55.798;37.782;2022-11-23T15:28:40;98895.34;;;1.15;92.37
33422;BME280;19763;55.798;37.782;2022-11-23T15:33:53;98886.00;;;1.17;92.19
33422;BME280;19763;55.798;37.782;2022-11-23T15:36:30;98915.75;;;1.16;91.37
33422;BME280;19763;55.798;37.782;2022-11-23T15:39:00;98901.28;;;1.09;91.13
33422;BME280;19763;55.798;37.782;2022-11-23T15:41:27;98924.28;;;1.29;91.56
33422;BME280;19763;55.798;37.782;2022-11-23T15:43:58;98931.09;;;1.32;92.04
33422;BME280;19763;55.798;37.782;2022-11-23T15:46:27;98919.19;;;1.23;91.17
33422;BME280;19763;55.798;37.782;2022-11-23T15:48:58;98925.94;;;1.18;91.16
33422;BME280;19763;55.798;37.782;2022-11-23T15:51:27;98921.59;;;0.95;90.67
33422;BME280;19763;55.798;37.782;2022-11-23T15:53:54;98932.69;;;1.00;91.01
33422;BME280;19763;55.798;37.782;2022-11-23T15:56:24;98937.78;;;1.05;91.16
33422;BME280;19763;55.798;37.782;2022-11-23T15:58:52;98945.41;;;0.94;91.24
33422;BME280;19763;55.798;37.782;2022-11-23T16:01:18;98939.44;;;0.95;91.89
33422;BME280;19763;55.798;37.782;2022-11-23T16:03:52;98949.63;;;0.95;91.68
33422;BME280;19763;55.798;37.782;2022-11-23T16:06:22;98948.00;;;1.05;91.95
33422;BME280;19763;55.798;37.782;2022-11-23T16:08:49;98959.06;;;1.09;91.98
33422;BME280;19763;55.798;37.782;2022-11-23T16:11:20;98945.41;;;0.97;91.44